Time;durP1;ratioP1;P1;durP2;ratioP2;P2;SDS_P1;SDS_P2;PMS_P1;PMS_P2;Temp;Humidity;BMP_temperature;BMP_pressure;BME280_temperature;BME280_humidity;BME280_pressure;Samples;Min_cycle;Max_cycle;Signal;HPM_P1;HPM_P2
2023/06/14 00:00:11;;;;;;;;;22.75;22.75;;;;;23.06;42.33;100238.59;5056396;28;45311;-69
2023/06/14 00:02:38;;;;;;;;;22.25;22.25;;;;;23.00;42.96;100236.50;5055245;28;45355;-69
2023/06/14 00:05:05;;;;;;;;;26.00;25.75;;;;;22.96;43.02;100236.00;5056294;28;46365;-72
2023/06/14 00:07:43;;;;;;;;;23.75;23.75;;;;;22.89;42.95;100238.41;5055104;28;45371;-71
2023/06/14 00:10:11;;;;;;;;;26.50;25.00;;;;;22.81;43.09;100241.00;5056019;28;45394;-70
2023/06/14 00:12:38;;;;;;;;;26.00;26.00;;;;;22.80;43.60;100238.47;5056526;28;45288;-71
2023/06/14 00:15:04;;;;;;;;;23.25;23.25;;;;;22.75;43.43;100237.06;5054666;28;47725;-71
2023/06/14 00:17:30;;;;;;;;;26.00;25.25;;;;;22.70;43.64;100235.84;5056043;28;45292;-70
2023/06/14 00:19:59;;;;;;;;;28.50;28.00;;;;;22.63;44.07;100232.09;5056458;28;45259;-71
2023/06/14 00:22:24;;;;;;;;;23.25;23.25;;;;;22.58;44.27;100235.19;5071674;28;45516;-71
2023/06/14 00:24:53;;;;;;;;;24.25;24.25;;;;;22.53;44.24;100238.34;5055696;28;47071;-71
2023/06/14 00:27:18;;;;;;;;;23.75;23.25;;;;;22.55;44.58;100233.66;5054367;28;45350;-70
2023/06/14 00:29:43;;;;;;;;;23.00;23.00;;;;;22.56;44.24;100251.44;5054452;28;45415;-70
2023/06/14 00:32:09;;;;;;;;;22.50;22.00;;;;;22.56;44.22;100247.91;5054671;28;45507;-70
2023/06/14 00:34:34;;;;;;;;;24.50;24.50;;;;;22.51;44.34;100250.19;5055708;28;46578;-71
2023/06/14 00:37:00;;;;;;;;;25.00;25.00;;;;;22.49;44.86;100250.34;5056259;28;45302;-72
2023/06/14 00:39:25;;;;;;;;;23.00;23.00;;;;;22.42;44.67;100250.03;5055389;28;45295;-72
2023/06/14 00:41:50;;;;;;;;;22.50;22.50;;;;;22.43;45.08;100254.41;5056105;28;46156;-71
2023/06/14 00:44:17;;;;;;;;;23.25;23.25;;;;;22.26;44.74;100234.59;5055936;28;45509;-71
2023/06/14 00:46:43;;;;;;;;;24.25;24.25;;;;;22.35;44.96;100248.94;5055732;28;45440;-71
2023/06/14 00:49:10;;;;;;;;;26.00;26.00;;;;;22.36;44.99;100263.19;5055715;28;45365;-70
2023/06/14 00:51:37;;;;;;;;;22.75;22.75;;;;;22.30;44.97;100256.59;5055855;28;45369;-67
2023/06/14 00:54:02;;;;;;;;;21.50;21.50;;;;;22.24;45.43;100257.16;5055468;28;46278;-69
2023/06/14 00:56:28;;;;;;;;;22.75;22.75;;;;;22.23;45.68;100258.16;5055910;28;45274;-69
2023/06/14 00:58:54;;;;;;;;;20.75;20.75;;;;;22.17;45.64;100257.75;5055786;28;45626;-68
2023/06/14 01:01:20;;;;;;;;;20.50;20.50;;;;;22.12;45.86;100259.16;5055659;28;45630;-71
2023/06/14 01:03:46;;;;;;;;;23.00;23.00;;;;;22.07;46.04;100259.63;5055269;28;46666;-71
2023/06/14 01:06:30;;;;;;;;;24.25;24.25;;;;;22.03;46.10;100256.38;5055167;28;45231;-71
2023/06/14 01:09:38;;;;;;;;;21.25;21.25;;;;;21.97;46.28;100269.50;5055607;28;45409;-72
2023/06/14 01:12:27;;;;;;;;;21.00;20.75;;;;;21.86;46.43;100263.31;5044722;28;45462;-70
2023/06/14 01:14:54;;;;;;;;;22.50;22.50;;;;;21.79;46.25;100264.88;5054854;28;46960;-71
2023/06/14 01:17:20;;;;;;;;;22.00;22.00;;;;;21.74;46.92;100254.59;5055429;28;45354;-69
2023/06/14 01:19:46;;;;;;;;;21.25;21.25;;;;;21.71;46.97;100257.56;5055494;28;45234;-72
2023/06/14 01:22:11;;;;;;;;;23.50;23.50;;;;;21.67;47.13;100252.59;5054008;28;45343;-69
2023/06/14 01:24:39;;;;;;;;;22.00;22.00;;;;;21.62;47.20;100254.84;5055084;28;45443;-70
2023/06/14 01:27:05;;;;;;;;;21.25;21.25;;;;;21.59;47.41;100262.16;5055101;28;45424;-70
2023/06/14 01:29:36;;;;;;;;;20.50;20.50;;;;;21.56;47.25;100265.13;5055351;28;45405;-71
2023/06/14 01:32:02;;;;;;;;;21.50;21.00;;;;;21.51;47.46;100264.69;5053823;28;45299;-69
2023/06/14 01:34:27;;;;;;;;;20.75;20.75;;;;;21.48;47.94;100267.66;5055095;28;46165;-71
2023/06/14 01:36:56;;;;;;;;;20.75;20.75;;;;;21.41;47.82;100262.03;5055010;28;45197;-71
2023/06/14 01:39:23;;;;;;;;;19.25;19.25;;;;;21.38;48.24;100270.34;5053643;28;45500;-71
2023/06/14 01:41:50;;;;;;;;;17.75;17.75;;;;;21.35;47.81;100275.97;5070649;27;45570;-69
2023/06/14 01:44:17;;;;;;;;;20.25;20.25;;;;;21.25;48.27;100257.22;5054674;28;47206;-69
2023/06/14 01:46:43;;;;;;;;;22.00;21.75;;;;;21.21;48.22;100263.00;5054649;28;45241;-71
2023/06/14 01:49:09;;;;;;;;;21.25;21.25;;;;;21.16;48.67;100261.56;5054870;28;45438;-70
2023/06/14 01:51:35;;;;;;;;;25.00;25.00;;;;;21.14;48.75;100263.53;5054034;28;45301;-70
2023/06/14 01:54:00;;;;;;;;;21.50;21.00;;;;;21.11;48.70;100263.81;5054903;28;45304;-72
2023/06/14 01:56:26;;;;;;;;;19.50;19.50;;;;;21.10;49.03;100262.13;5054586;28;45333;-69
2023/06/14 01:58:51;;;;;;;;;22.25;22.25;;;;;21.03;48.99;100250.28;5054736;28;45301;-69
2023/06/14 02:01:18;;;;;;;;;21.00;21.00;;;;;21.03;48.75;100255.63;5054688;28;45528;-71
2023/06/14 02:03:44;;;;;;;;;23.00;23.00;;;;;21.01;49.11;100260.28;5053074;28;47904;-72
2023/06/14 02:06:10;;;;;;;;;22.75;22.75;;;;;21.00;48.98;100259.44;5054351;28;45285;-71
2023/06/14 02:08:36;;;;;;;;;22.25;22.25;;;;;20.93;48.77;100249.44;5055003;28;45319;-69
2023/06/14 02:11:01;;;;;;;;;19.50;19.50;;;;;20.91;48.69;100254.94;5054893;28;45519;-72
2023/06/14 02:13:26;;;;;;;;;20.75;20.75;;;;;20.90;49.38;100258.59;5054255;28;45661;-71
2023/06/14 02:15:54;;;;;;;;;21.25;21.25;;;;;20.90;49.52;100257.72;5054487;28;45331;-70
2023/06/14 02:18:21;;;;;;;;;16.00;16.00;;;;;20.86;49.02;100259.84;5054615;28;45475;-70
2023/06/14 02:20:47;;;;;;;;;20.00;20.00;;;;;20.86;49.50;100263.34;5053389;28;45573;-71
2023/06/14 02:23:12;;;;;;;;;21.75;21.75;;;;;20.82;48.92;100259.25;5054240;28;46352;-70
2023/06/14 02:25:39;;;;;;;;;20.75;20.75;;;;;20.82;49.44;100264.59;5054535;28;45335;-71
2023/06/14 02:28:04;;;;;;;;;22.75;22.75;;;;;20.79;49.61;100267.53;5042270;28;45399;-70
2023/06/14 02:30:30;;;;;;;;;21.00;21.00;;;;;20.77;49.34;100268.66;5032429;28;45454;-71
2023/06/14 02:32:56;;;;;;;;;21.50;21.50;;;;;20.75;49.46;100273.28;5032683;28;46494;-71
2023/06/14 02:35:24;;;;;;;;;24.00;23.25;;;;;20.70;49.31;100266.53;5034269;28;45182;-71
2023/06/14 02:37:51;;;;;;;;;22.50;22.50;;;;;20.65;49.45;100263.38;5033450;28;45363;-72
2023/06/14 02:40:16;;;;;;;;;20.00;19.25;;;;;20.61;49.40;100271.81;5034282;28;45503;-72
2023/06/14 02:42:41;;;;;;;;;19.75;19.75;;;;;20.55;50.07;100266.03;5033104;28;46067;-72
2023/06/14 02:45:08;;;;;;;;;21.50;21.50;;;;;20.52;49.88;100277.00;5034374;28;45332;-70
2023/06/14 02:47:33;;;;;;;;;19.75;19.75;;;;;20.44;50.19;100274.13;5034632;28;45342;-71
2023/06/14 02:49:58;;;;;;;;;21.00;21.00;;;;;20.37;50.36;100286.34;5032814;28;45304;-69
2023/06/14 02:52:25;;;;;;;;;19.25;19.25;;;;;20.26;50.39;100276.56;5033769;28;45346;-69
2023/06/14 02:54:50;;;;;;;;;23.25;23.25;;;;;20.20;50.61;100271.75;5032933;28;45443;-70
2023/06/14 02:57:16;;;;;;;;;20.00;19.75;;;;;20.17;50.41;100280.03;5033948;28;45329;-70
2023/06/14 02:59:41;;;;;;;;;21.50;20.75;;;;;20.10;51.07;100269.00;5034171;28;45287;-71
2023/06/14 03:02:06;;;;;;;;;19.75;19.25;;;;;20.06;50.89;100273.78;5034493;28;45339;-71
2023/06/14 03:04:37;;;;;;;;;20.25;20.25;;;;;20.00;51.40;100268.97;5037226;28;45243;-69
2023/06/14 03:07:08;;;;;;;;;22.00;22.00;;;;;19.99;51.25;100278.78;5036059;28;45483;-72
2023/06/14 03:09:37;;;;;;;;;20.25;20.25;;;;;19.94;51.48;100275.66;5037312;28;45393;-68
2023/06/14 03:12:03;;;;;;;;;19.25;19.25;;;;;19.96;51.52;100287.06;5037004;28;46315;-69
2023/06/14 03:14:30;;;;;;;;;20.00;20.00;;;;;19.95;51.89;100288.03;5036862;28;45256;-70
2023/06/14 03:16:56;;;;;;;;;20.25;20.25;;;;;19.96;51.27;100291.56;5036829;28;45214;-71
2023/06/14 03:19:22;;;;;;;;;18.75;18.75;;;;;19.95;51.44;100295.22;5037175;28;45266;-70
2023/06/14 03:21:48;;;;;;;;;21.00;21.00;;;;;19.93;51.82;100297.16;5036904;28;45431;-69
2023/06/14 03:24:16;;;;;;;;;19.50;19.25;;;;;19.88;52.12;100292.16;5036682;28;45435;-69
2023/06/14 03:26:41;;;;;;;;;23.25;22.25;;;;;19.88;51.68;100299.34;5037071;28;45567;-67
2023/06/14 03:29:07;;;;;;;;;19.75;19.75;;;;;19.80;52.41;100298.16;5037460;28;45489;-69
2023/06/14 03:31:34;;;;;;;;;23.00;23.00;;;;;19.82;52.00;100308.69;5036637;28;46281;-71
2023/06/14 03:34:00;;;;;;;;;21.00;21.00;;;;;19.76;51.93;100306.53;5035426;28;46226;-69
2023/06/14 03:36:26;;;;;;;;;22.50;22.50;;;;;19.76;52.28;100317.22;5036720;28;45263;-68
2023/06/14 03:38:51;;;;;;;;;21.00;21.00;;;;;19.68;52.95;100308.03;5037285;28;45578;-69
2023/06/14 03:41:16;;;;;;;;;17.00;17.00;;;;;19.61;52.76;100301.53;5036804;28;46387;-71
2023/06/14 03:43:41;;;;;;;;;25.50;24.75;;;;;19.65;53.36;100315.47;5035434;28;46177;-67
2023/06/14 03:46:07;;;;;;;;;18.50;18.50;;;;;19.60;53.21;100318.50;5035181;28;51093;-70
2023/06/14 03:48:32;;;;;;;;;24.00;24.00;;;;;19.55;53.43;100321.53;5036767;28;45400;-69
2023/06/14 03:50:58;;;;;;;;;24.00;24.00;;;;;19.51;53.32;100322.75;5051883;28;47133;-67
2023/06/14 03:53:23;;;;;;;;;22.50;22.50;;;;;19.50;53.56;100330.91;5036342;28;45562;-71
2023/06/14 03:55:49;;;;;;;;;21.00;21.00;;;;;19.44;53.73;100321.56;5035958;28;52929;-71
2023/06/14 03:58:15;;;;;;;;;20.25;20.25;;;;;19.45;53.76;100333.94;5036683;28;45325;-69
2023/06/14 04:00:41;;;;;;;;;22.75;22.25;;;;;19.44;53.65;100331.41;5036578;28;46386;-70
2023/06/14 04:03:06;;;;;;;;;22.00;22.00;;;;;19.45;53.73;100338.44;5036255;28;45509;-71
2023/06/14 04:05:32;;;;;;;;;19.50;18.50;;;;;19.41;53.69;100329.81;5036578;28;45322;-69
2023/06/14 04:07:58;;;;;;;;;22.50;22.50;;;;;19.38;54.09;100328.28;5036285;28;45619;-68
2023/06/14 04:10:24;;;;;;;;;19.50;19.50;;;;;19.36;53.47;100332.03;5035725;28;45799;-69
2023/06/14 04:12:50;;;;;;;;;21.25;20.50;;;;;19.40;53.42;100336.13;5035741;28;45255;-70
2023/06/14 04:15:15;;;;;;;;;24.25;24.25;;;;;19.42;53.38;100339.53;5035513;28;45252;-68
2023/06/14 04:17:41;;;;;;;;;21.00;21.00;;;;;19.44;53.50;100332.25;5036686;28;45445;-69
2023/06/14 04:20:09;;;;;;;;;22.00;22.00;;;;;19.49;53.08;100334.53;5035931;28;46583;-70
2023/06/14 04:22:36;;;;;;;;;20.00;20.00;;;;;19.54;53.12;100343.84;5035754;28;45530;-70
2023/06/14 04:25:02;;;;;;;;;22.75;22.25;;;;;19.53;53.05;100338.66;5036087;28;45481;-70
2023/06/14 04:27:28;;;;;;;;;22.50;22.50;;;;;19.54;53.48;100348.34;5034868;28;45379;-68
2023/06/14 04:29:59;;;;;;;;;25.00;25.00;;;;;19.54;53.87;100351.84;5035862;28;46346;-68
2023/06/14 04:32:29;;;;;;;;;22.00;22.00;;;;;19.53;53.98;100349.31;5035914;28;45426;-69
2023/06/14 04:34:59;;;;;;;;;21.25;21.25;;;;;19.52;54.05;100358.31;5035623;28;45233;-71
2023/06/14 04:37:24;;;;;;;;;23.00;23.00;;;;;19.53;54.01;100354.66;5035481;28;45358;-69
2023/06/14 04:39:51;;;;;;;;;22.00;22.00;;;;;19.55;54.22;100361.53;5034226;28;47401;-69
2023/06/14 04:42:16;;;;;;;;;22.00;21.50;;;;;19.54;53.59;100361.69;5034341;28;45991;-70
2023/06/14 04:44:43;;;;;;;;;22.00;22.00;;;;;19.61;53.54;100364.69;5036131;28;45335;-69
2023/06/14 04:47:09;;;;;;;;;22.00;22.00;;;;;19.61;53.36;100362.88;5034505;28;45501;-69
2023/06/14 04:49:34;;;;;;;;;22.00;22.00;;;;;19.64;53.27;100365.28;5035295;28;45303;-69
2023/06/14 04:52:01;;;;;;;;;25.00;25.00;;;;;19.67;53.03;100366.88;5034009;28;45467;-70
2023/06/14 04:54:27;;;;;;;;;23.25;23.25;;;;;19.68;53.30;100369.41;5051272;28;45339;-69
2023/06/14 04:56:53;;;;;;;;;20.00;20.00;;;;;19.67;53.75;100365.03;5035790;28;45226;-67
2023/06/14 04:59:18;;;;;;;;;23.50;23.50;;;;;19.76;53.82;100373.25;5035518;28;46372;-70
2023/06/14 05:01:48;;;;;;;;;19.50;19.50;;;;;19.85;53.61;100370.69;5035870;28;45387;-71
2023/06/14 05:04:17;;;;;;;;;23.00;23.00;;;;;19.98;53.58;100365.19;5035941;28;45364;-69
2023/06/14 05:06:47;;;;;;;;;21.50;21.50;;;;;20.10;53.62;100371.34;5035819;28;45289;-69
2023/06/14 05:09:14;;;;;;;;;19.00;19.00;;;;;20.29;53.21;100372.44;5035389;28;45714;-69
2023/06/14 05:11:39;;;;;;;;;22.50;22.50;;;;;20.44;53.15;100373.81;5034952;28;45230;-67
2023/06/14 05:14:06;;;;;;;;;24.75;24.75;;;;;20.63;52.25;100366.06;5034993;28;45242;-70
2023/06/14 05:16:31;;;;;;;;;25.50;25.50;;;;;20.77;52.29;100365.69;5034934;28;45297;-71
2023/06/14 05:18:57;;;;;;;;;16.50;16.50;;;;;20.85;51.74;100365.91;5034849;28;46756;-70
2023/06/14 05:21:23;;;;;;;;;24.50;23.75;;;;;20.99;51.20;100371.88;5034879;28;45196;-70
2023/06/14 05:23:48;;;;;;;;;26.50;26.50;;;;;21.10;50.70;100376.28;5034998;28;45406;-70
2023/06/14 05:26:14;;;;;;;;;19.50;19.50;;;;;21.23;50.56;100376.06;5033937;28;45506;-71
2023/06/14 05:28:40;;;;;;;;;20.75;20.75;;;;;21.30;50.16;100364.66;5034760;28;45869;-69
2023/06/14 05:31:05;;;;;;;;;23.25;23.25;;;;;21.44;50.01;100368.78;5050020;28;45445;-69
2023/06/14 05:33:30;;;;;;;;;25.25;25.25;;;;;21.51;50.00;100377.09;5046499;28;45476;-70
2023/06/14 05:35:56;;;;;;;;;23.00;23.00;;;;;21.60;49.37;100372.75;5055383;28;45378;-71
2023/06/14 05:38:22;;;;;;;;;24.25;24.25;;;;;21.74;49.25;100382.25;5054277;28;45739;-72
2023/06/14 05:40:47;;;;;;;;;23.75;23.00;;;;;21.82;48.92;100381.53;5035104;28;45375;-70
2023/06/14 05:43:12;;;;;;;;;30.50;29.50;;;;;21.87;48.89;100379.28;5037553;28;45540;-71
2023/06/14 05:45:38;;;;;;;;;24.50;24.50;;;;;21.99;48.80;100391.53;5054331;28;45370;-72
2023/06/14 05:48:03;;;;;;;;;23.00;23.00;;;;;22.09;48.85;100391.56;5052022;28;46324;-72
2023/06/14 05:50:29;;;;;;;;;24.25;24.25;;;;;22.15;48.38;100382.09;5052723;28;46076;-68
2023/06/14 05:52:54;;;;;;;;;29.00;28.25;;;;;22.20;47.96;100385.19;5052491;28;45414;-71
2023/06/14 05:55:20;;;;;;;;;23.75;23.75;;;;;22.22;47.82;100388.56;5052721;28;45412;-69
2023/06/14 05:57:47;;;;;;;;;25.00;25.00;;;;;22.24;47.45;100389.25;5053406;28;45328;-74
2023/06/14 06:00:15;;;;;;;;;23.25;23.25;;;;;22.24;47.51;100391.94;5053859;28;45441;-72
2023/06/14 06:02:45;;;;;;;;;28.00;27.00;;;;;22.25;47.81;100390.94;5054602;28;45519;-72
2023/06/14 06:05:11;;;;;;;;;28.00;28.00;;;;;22.27;47.34;100390.81;5055240;28;45510;-78
2023/06/14 06:07:37;;;;;;;;;27.25;27.25;;;;;22.27;47.17;100398.88;5055203;28;46857;-76
2023/06/14 06:10:04;;;;;;;;;25.25;25.25;;;;;22.26;46.75;100399.84;5055836;28;45370;-81
2023/06/14 06:12:32;;;;;;;;;25.50;25.50;;;;;22.22;47.08;100395.78;5056794;28;45426;-78
2023/06/14 06:14:58;;;;;;;;;25.25;25.25;;;;;22.18;47.13;100403.22;5055326;28;45563;-76
2023/06/14 06:17:25;;;;;;;;;23.00;23.00;;;;;22.07;47.34;100395.34;5055900;28;45213;-77
2023/06/14 06:19:50;;;;;;;;;24.00;24.00;;;;;21.99;47.25;100402.25;5056167;28;45371;-77
2023/06/14 06:22:16;;;;;;;;;21.75;21.75;;;;;21.86;47.07;100396.31;5056294;28;45788;-80
2023/06/14 06:24:42;;;;;;;;;22.50;22.50;;;;;21.83;47.18;100410.00;5055715;28;45281;-76
2023/06/14 06:27:08;;;;;;;;;25.75;25.75;;;;;21.82;46.97;100408.31;5055424;28;46007;-73
2023/06/14 06:29:34;;;;;;;;;21.50;21.50;;;;;21.74;46.80;100409.00;5050654;28;46228;-73
2023/06/14 06:32:00;;;;;;;;;23.00;22.25;;;;;21.70;47.14;100407.56;5035501;28;45449;-76
2023/06/14 06:34:25;;;;;;;;;26.50;26.50;;;;;21.67;47.40;100414.06;5052486;28;45533;-71
2023/06/14 06:36:51;;;;;;;;;24.75;23.75;;;;;21.60;46.87;100396.84;5054822;28;45415;-72
2023/06/14 06:39:16;;;;;;;;;24.50;24.50;;;;;21.67;47.07;100416.75;5062438;28;45450;-76
2023/06/14 06:41:42;;;;;;;;;25.50;25.50;;;;;21.69;47.06;100421.94;5056694;28;45395;-78
2023/06/14 06:44:10;;;;;;;;;23.50;23.50;;;;;21.70;46.92;100419.13;5060251;28;45570;-73
2023/06/14 06:46:40;;;;;;;;;27.25;27.25;;;;;21.69;46.75;100414.78;5058674;28;46369;-74
2023/06/14 06:49:07;;;;;;;;;24.00;24.00;;;;;21.70;46.82;100411.09;5058094;28;45455;-75
2023/06/14 06:51:32;;;;;;;;;25.50;25.50;;;;;21.80;46.07;100423.66;5058687;28;45339;-73
2023/06/14 06:53:58;;;;;;;;;31.75;30.00;;;;;21.76;45.96;100409.72;5059112;28;45354;-71
2023/06/14 06:56:24;;;;;;;;;20.00;20.00;;;;;21.89;45.76;100429.03;5055957;28;46250;-69
2023/06/14 06:58:50;;;;;;;;;22.50;22.50;;;;;21.87;45.80;100424.78;5055383;28;45617;-70
2023/06/14 07:01:16;;;;;;;;;25.50;25.50;;;;;21.93;45.59;100437.63;5056234;28;45367;-73
2023/06/14 07:03:42;;;;;;;;;23.50;22.75;;;;;21.99;45.60;100441.59;5056120;28;45997;-72
2023/06/14 07:06:07;;;;;;;;;59.75;49.75;;;;;22.03;45.74;100434.97;5055503;28;46741;-70
2023/06/14 07:08:33;;;;;;;;;29.25;27.50;;;;;22.10;45.86;100435.22;5052556;28;45440;-70
2023/06/14 07:10:58;;;;;;;;;24.75;24.75;;;;;22.13;46.06;100435.81;5044271;28;46204;-70
2023/06/14 07:13:24;;;;;;;;;23.50;23.50;;;;;22.27;45.10;100449.78;5038343;28;45634;-69
2023/06/14 07:15:49;;;;;;;;;23.00;23.00;;;;;22.30;44.52;100449.47;5059668;28;45441;-73
2023/06/14 07:18:15;;;;;;;;;22.75;22.75;;;;;22.31;44.59;100441.31;5057649;28;45457;-70
2023/06/14 07:20:41;;;;;;;;;26.75;26.25;;;;;22.44;44.52;100453.59;5055795;28;45417;-71
2023/06/14 07:23:06;;;;;;;;;22.75;22.75;;;;;22.49;44.49;100455.84;5055800;28;45627;-75
2023/06/14 07:25:32;;;;;;;;;23.00;23.00;;;;;22.54;44.04;100453.59;5056922;28;45990;-72
2023/06/14 07:27:57;;;;;;;;;22.50;22.50;;;;;22.58;43.47;100461.22;5058202;28;45528;-76
2023/06/14 07:30:25;;;;;;;;;19.50;19.50;;;;;22.63;43.15;100463.44;5058518;28;45397;-74
2023/06/14 07:32:52;;;;;;;;;34.75;32.50;;;;;22.67;43.50;100458.66;5058206;28;45353;-73
2023/06/14 07:35:18;;;;;;;;;21.25;21.25;;;;;22.71;43.28;100457.38;5059466;28;45716;-71
2023/06/14 07:37:43;;;;;;;;;22.00;22.00;;;;;22.87;43.64;100470.19;5057377;28;45252;-68
2023/06/14 07:40:10;;;;;;;;;21.00;21.00;;;;;22.94;42.40;100462.41;5055396;28;45568;-70
2023/06/14 07:42:35;;;;;;;;;21.75;21.75;;;;;23.02;42.02;100468.75;5056624;28;45326;-67
2023/06/14 07:45:01;;;;;;;;;22.75;22.50;;;;;23.12;41.57;100474.06;5056502;28;46170;-67
2023/06/14 07:47:27;;;;;;;;;19.00;19.00;;;;;23.20;41.44;100478.69;5054949;28;45989;-73
2023/06/14 07:49:52;;;;;;;;;13.00;13.00;;;;;23.30;41.65;100481.38;5055189;28;52964;-76
2023/06/14 07:52:18;;;;;;;;;22.75;22.50;;;;;23.37;41.84;100479.81;5055382;28;45431;-76
2023/06/14 07:54:43;;;;;;;;;20.75;20.75;;;;;23.45;41.84;100476.38;5056760;28;46369;-76
2023/06/14 07:57:11;;;;;;;;;22.25;22.25;;;;;23.53;41.50;100481.00;5056554;28;48469;-69
2023/06/14 07:59:37;;;;;;;;;20.50;20.50;;;;;23.61;40.93;100479.25;5057408;28;45175;-75
2023/06/14 08:02:02;;;;;;;;;23.50;23.50;;;;;23.69;40.08;100485.69;5056851;28;45414;-67
2023/06/14 08:04:28;;;;;;;;;25.75;25.75;;;;;23.73;40.14;100476.34;5055950;28;46082;-68
2023/06/14 08:06:53;;;;;;;;;22.50;22.50;;;;;23.84;39.55;100478.00;5055116;28;45727;-68
2023/06/14 08:09:19;;;;;;;;;25.00;24.50;;;;;23.93;39.99;100494.06;5056448;28;48365;-73
2023/06/14 08:11:44;;;;;;;;;20.25;20.25;;;;;23.98;39.37;100482.84;5054716;28;45492;-68
2023/06/14 08:14:10;;;;;;;;;18.50;18.50;;;;;24.06;40.25;100492.88;5056450;28;46242;-71
2023/06/14 08:16:35;;;;;;;;;22.75;22.75;;;;;24.13;39.74;100491.25;5056055;28;45430;-73
2023/06/14 08:19:00;;;;;;;;;18.25;17.25;;;;;24.17;39.56;100487.28;5056642;28;45399;-71
2023/06/14 08:21:28;;;;;;;;;20.00;20.00;;;;;24.21;39.09;100487.78;5058482;28;45565;-70
2023/06/14 08:23:54;;;;;;;;;20.00;20.00;;;;;24.30;39.09;100494.09;5058002;28;45310;-71
2023/06/14 08:26:23;;;;;;;;;20.75;20.75;;;;;24.38;38.34;100501.38;5057699;28;45266;-68
2023/06/14 08:28:49;;;;;;;;;22.50;22.50;;;;;24.40;37.47;100489.50;5056262;28;45448;-68
2023/06/14 08:31:14;;;;;;;;;22.00;22.00;;;;;24.49;37.71;100501.19;5056169;28;45409;-73
2023/06/14 08:33:43;;;;;;;;;20.75;20.75;;;;;24.56;36.55;100493.31;5057050;28;46063;-72
2023/06/14 08:36:08;;;;;;;;;22.75;21.75;;;;;24.61;36.92;100491.00;5057158;28;45322;-74
2023/06/14 08:38:34;;;;;;;;;20.75;20.25;;;;;24.69;36.94;100492.94;5057671;28;45467;-77
2023/06/14 08:41:08;;;;;;;;;18.75;18.75;;;;;24.74;35.96;100491.47;5057539;28;45581;-70
2023/06/14 08:43:33;;;;;;;;;20.50;20.50;;;;;24.83;35.57;100489.69;5057352;28;46214;-72
2023/06/14 08:46:04;;;;;;;;;22.25;22.25;;;;;24.93;35.70;100495.81;5056726;28;45311;-78
2023/06/14 08:48:33;;;;;;;;;17.50;17.50;;;;;25.06;35.72;100497.22;5057809;28;45393;-72
2023/06/14 08:51:04;;;;;;;;;18.25;18.25;;;;;25.12;35.19;100499.28;5057037;28;45498;-74
2023/06/14 08:53:52;;;;;;;;;20.50;20.50;;;;;25.19;34.32;100497.66;5057041;28;45337;-70
2023/06/14 08:56:19;;;;;;;;;18.00;18.00;;;;;25.30;34.16;100499.22;5054056;28;45315;-67
2023/06/14 08:58:47;;;;;;;;;17.25;17.25;;;;;25.33;33.18;100495.34;5056866;28;45277;-69
2023/06/14 09:01:14;;;;;;;;;23.50;23.50;;;;;25.41;33.27;100489.19;5053939;28;45480;-70
2023/06/14 09:03:41;;;;;;;;;18.50;18.50;;;;;25.49;33.17;100497.31;5053839;28;47616;-74
2023/06/14 09:06:08;;;;;;;;;14.25;14.25;;;;;25.54;32.78;100496.84;5054221;28;45364;-76
2023/06/14 09:08:35;;;;;;;;;16.25;16.25;;;;;25.65;32.86;100510.84;5054221;28;45456;-71
2023/06/14 09:11:01;;;;;;;;;14.25;14.25;;;;;25.72;32.43;100499.44;5055664;28;45233;-69
2023/06/14 09:13:27;;;;;;;;;15.00;15.00;;;;;25.77;32.43;100497.09;5054455;28;48137;-66
2023/06/14 09:15:53;;;;;;;;;17.25;17.25;;;;;25.86;32.09;100503.34;5055146;28;45255;-73
2023/06/14 09:18:20;;;;;;;;;18.75;18.75;;;;;25.95;32.41;100500.50;5053866;28;45418;-70
2023/06/14 09:20:47;;;;;;;;;16.25;16.25;;;;;26.03;32.34;100507.78;5055446;28;45436;-78
2023/06/14 09:23:13;;;;;;;;;14.25;14.25;;;;;26.10;31.57;100506.09;5056735;28;47047;-75
2023/06/14 09:25:45;;;;;;;;;14.25;14.25;;;;;26.17;31.37;100510.84;5056011;28;45327;-69
2023/06/14 09:28:11;;;;;;;;;14.75;14.00;;;;;26.17;31.25;100500.94;5055373;28;45404;-67
2023/06/14 09:30:38;;;;;;;;;18.75;18.75;;;;;26.28;30.76;100502.44;5053536;28;45673;-78
2023/06/14 09:33:06;;;;;;;;;15.00;15.00;;;;;26.33;31.29;100496.56;5054882;28;46484;-72
2023/06/14 09:35:32;;;;;;;;;19.00;19.00;;;;;26.45;30.92;100502.44;5054351;28;45378;-73
2023/06/14 09:37:58;;;;;;;;;20.00;19.50;;;;;26.52;29.65;100503.50;5055142;28;45281;-70
2023/06/14 09:40:24;;;;;;;;;16.00;15.00;;;;;26.59;29.13;100506.34;5055131;28;45512;-74
2023/06/14 09:42:49;;;;;;;;;15.00;15.00;;;;;26.63;29.11;100500.47;5054682;28;46710;-75
2023/06/14 09:45:19;;;;;;;;;15.75;15.75;;;;;26.69;27.19;100504.31;5054647;28;45424;-71
2023/06/14 09:47:46;;;;;;;;;15.25;15.25;;;;;26.75;28.03;100509.03;5054801;28;45276;-73
2023/06/14 09:50:11;;;;;;;;;16.75;16.75;;;;;26.79;27.90;100504.16;5054415;28;45350;-69
2023/06/14 09:52:37;;;;;;;;;18.25;18.25;;;;;26.87;27.92;100511.41;5054409;28;45384;-75
2023/06/14 09:55:13;;;;;;;;;19.00;19.00;;;;;26.89;28.40;100503.97;5053207;28;45377;-76
2023/06/14 09:57:42;;;;;;;;;15.25;15.25;;;;;27.01;26.97;100516.09;5054646;28;45592;-73
2023/06/14 10:00:11;;;;;;;;;27.25;27.00;;;;;27.02;27.69;100522.34;5052938;28;45675;-77
2023/06/14 10:02:38;;;;;;;;;18.00;18.00;;;;;27.04;27.92;100526.59;5052511;28;47013;-77
2023/06/14 10:05:06;;;;;;;;;15.75;15.75;;;;;27.06;28.07;100521.84;5054935;28;45257;-77
2023/06/14 10:07:38;;;;;;;;;18.50;18.50;;;;;27.08;27.23;100521.66;5053388;28;45536;-79
2023/06/14 10:10:05;;;;;;;;;15.50;15.00;;;;;27.11;27.67;100519.47;5053393;28;45251;-76
2023/06/14 10:12:31;;;;;;;;;18.25;18.25;;;;;27.16;27.45;100520.81;5055005;28;48181;-75
2023/06/14 10:14:57;;;;;;;;;21.00;21.00;;;;;27.21;27.22;100526.53;5057450;28;45452;-75
2023/06/14 10:17:42;;;;;;;;;15.75;15.75;;;;;27.29;27.49;100517.56;5058299;28;45431;-79
2023/06/14 10:20:26;;;;;;;;;17.00;17.00;;;;;27.34;27.69;100516.03;5056944;28;45447;-77
2023/06/14 10:22:59;;;;;;;;;17.25;17.25;;;;;27.45;27.73;100520.22;5056507;28;48212;-78
2023/06/14 10:25:29;;;;;;;;;21.50;21.50;;;;;27.52;27.50;100525.81;5057987;28;45434;-80
2023/06/14 10:28:24;;;;;;;;;16.50;16.50;;;;;27.50;27.14;100519.72;5057592;28;45193;-75
2023/06/14 10:31:06;;;;;;;;;19.00;19.00;;;;;27.65;27.49;100519.84;5058639;28;45330;-71
2023/06/14 10:33:33;;;;;;;;;24.25;24.25;;;;;27.66;26.95;100516.13;5057831;28;46581;-71
2023/06/14 10:36:26;;;;;;;;;19.50;19.50;;;;;27.69;26.52;100516.59;5057985;28;45277;-72
2023/06/14 10:39:19;;;;;;;;;20.50;20.50;;;;;27.70;26.87;100517.47;5049070;28;45416;-76
2023/06/14 10:41:53;;;;;;;;;21.00;21.00;;;;;27.73;27.13;100517.09;5036678;28;45461;-68
2023/06/14 10:44:19;;;;;;;;;18.50;18.50;;;;;27.77;26.83;100515.72;5038394;28;45268;-76
2023/06/14 10:46:54;;;;;;;;;18.00;18.00;;;;;27.79;26.81;100507.44;5036404;28;45470;-71
2023/06/14 10:49:43;;;;;;;;;19.50;19.50;;;;;27.85;26.50;100518.38;5037913;28;45363;-75
2023/06/14 10:52:20;;;;;;;;;20.75;20.75;;;;;27.89;26.46;100518.03;5037486;28;45399;-72
2023/06/14 10:55:12;;;;;;;;;22.00;21.25;;;;;27.91;27.39;100503.31;5037009;28;45518;-79
2023/06/14 10:57:43;;;;;;;;;22.00;22.00;;;;;27.93;26.69;100509.38;5036146;28;45456;-72
2023/06/14 11:00:13;;;;;;;;;19.25;19.25;;;;;27.95;26.62;100518.16;5037483;28;45338;-74
2023/06/14 11:03:31;;;;;;;;;20.00;20.00;;;;;27.93;26.27;100497.75;5035657;28;45809;-69
2023/06/14 11:06:00;;;;;;;;;23.25;23.25;;;;;27.94;26.38;100504.81;5034517;28;46909;-70
2023/06/14 11:08:46;;;;;;;;;20.00;20.00;;;;;27.99;27.32;100510.53;5036461;28;45556;-76
2023/06/14 11:11:13;;;;;;;;;14.75;14.75;;;;;28.08;26.83;100505.91;5035803;28;45441;-73